PWSweather.com
Personal Weather Stations
Station Observations
KTXROWLE6
Ravens Nest, Rowlett, TX 75089

Ravens NestRowlett, TX 75089

Lat: 32.93105, Lon: -96.57368

Elevation: 556

Station Type: Davis Vantage Pro2 6152

http://rowlett.ws

Latest ConditionsUpdated 9:50:05 AM CST Saturday, Feb 28, 2015
Currently Today's Max Today's Min Today's Average
Temperature 29.9°F-1.2°C 29.9°F-1.2°C 27.3°F-2.6°C 28.1°F-2.2°C
Dew Point 27.3°F-2.6°C 27.3°F-2.6°C 24.7°F-4.1°C 25.8°F-3.4°C
Winds 1.0 mph E1.6 kmh E 8.0 mph E12.9 kmh E - 1.7 mph 2.7 kmh
Wind Gusts 3.0 mph4.8 kmh 10.0 mph16.1 kmh - -
Humidity 90% 92% 89% 91%
Pressure 30.49 in1032.5 mb 30.51 in1033.2 mb 30.46 in1031.5 mb -
Hour Temp Dew Point Humidity Winds Wind Gusts Pressure Precip Precip Rate Daily Precip Total
09:50 AM 29.9°F-1.2°C 27.3°F-2.6°C 90% 1.0 mph E1.6 kmh E 3.0 mph4.8 kmh 30.49 in1032.5 mb 0.00 in0.0 mm 0.00 in/hr0.0 mm/hr 0.00 in0.0 mm
09:45 AM 29.7°F-1.3°C 26.8°F-2.9°C 89% 2.0 mph E3.2 kmh E 5.0 mph8.0 kmh 30.48 in1032.2 mb 0.00 in0.0 mm 0.00 in/hr0.0 mm/hr 0.00 in0.0 mm
09:40 AM 29.7°F-1.3°C 26.8°F-2.9°C 89% 3.0 mph E4.8 kmh E 5.0 mph8.0 kmh 30.48 in1032.2 mb 0.00 in0.0 mm 0.00 in/hr0.0 mm/hr 0.00 in0.0 mm
09:35 AM 29.6°F-1.3°C 27.0°F-2.8°C 90% 1.0 mph E1.6 kmh E 6.0 mph9.7 kmh 30.49 in1032.5 mb 0.00 in0.0 mm 0.00 in/hr0.0 mm/hr 0.00 in0.0 mm
09:30 AM 29.5°F-1.4°C 26.9°F-2.8°C 90% Calm Calm 8.0 mph12.9 kmh 30.48 in1032.2 mb 0.00 in0.0 mm 0.00 in/hr0.0 mm/hr 0.00 in0.0 mm
09:25 AM 29.4°F-1.4°C 26.8°F-2.9°C 90% 1.0 mph E1.6 kmh E 7.0 mph11.3 kmh 30.48 in1032.2 mb 0.00 in0.0 mm 0.00 in/hr0.0 mm/hr 0.00 in0.0 mm
09:20 AM 29.3°F-1.5°C 26.7°F-2.9°C 90% 2.0 mph E3.2 kmh E 6.0 mph9.7 kmh 30.48 in1032.2 mb 0.00 in0.0 mm 0.00 in/hr0.0 mm/hr 0.00 in0.0 mm
09:15 AM 29.3°F-1.5°C 26.7°F-2.9°C 90% 1.0 mph E1.6 kmh E 8.0 mph12.9 kmh 30.48 in1032.2 mb 0.00 in0.0 mm 0.00 in/hr0.0 mm/hr 0.00 in0.0 mm
09:10 AM 29.2°F-1.6°C 26.6°F-3.0°C 90% 1.0 mph E1.6 kmh E 6.0 mph9.7 kmh 30.48 in1032.2 mb 0.00 in0.0 mm 0.00 in/hr0.0 mm/hr 0.00 in0.0 mm
09:05 AM 29.1°F-1.6°C 26.5°F-3.1°C 90% 2.0 mph E3.2 kmh E 7.0 mph11.3 kmh 30.48 in1032.2 mb 0.00 in0.0 mm 0.00 in/hr0.0 mm/hr 0.00 in0.0 mm
09:00 AM 29.0°F-1.7°C 26.4°F-3.1°C 90% 1.0 mph E1.6 kmh E 7.0 mph11.3 kmh 30.48 in1032.2 mb 0.00 in0.0 mm 0.00 in/hr0.0 mm/hr 0.00 in0.0 mm
08:55 AM 29.0°F-1.7°C 26.4°F-3.1°C 90% 5.0 mph E8.0 kmh E 6.0 mph9.7 kmh 30.49 in1032.5 mb 0.00 in0.0 mm 0.00 in/hr0.0 mm/hr 0.00 in0.0 mm
08:50 AM 29.0°F-1.7°C 26.4°F-3.1°C 90% 2.0 mph E3.2 kmh E 5.0 mph8.0 kmh 30.48 in1032.2 mb 0.00 in0.0 mm 0.00 in/hr0.0 mm/hr 0.00 in0.0 mm
08:45 AM 28.9°F-1.7°C 26.3°F-3.2°C 90% 1.0 mph E1.6 kmh E 9.0 mph14.5 kmh 30.47 in1031.8 mb 0.00 in0.0 mm 0.00 in/hr0.0 mm/hr 0.00 in0.0 mm
08:40 AM 29.0°F-1.7°C 26.4°F-3.1°C 90% 7.0 mph E11.3 kmh E 8.0 mph12.9 kmh 30.47 in1031.8 mb 0.00 in0.0 mm 0.00 in/hr0.0 mm/hr 0.00 in0.0 mm
08:35 AM 29.0°F-1.7°C 26.4°F-3.1°C 90% 1.0 mph E1.6 kmh E 7.0 mph11.3 kmh 30.47 in1031.8 mb 0.00 in0.0 mm 0.00 in/hr0.0 mm/hr 0.00 in0.0 mm
08:30 AM 28.9°F-1.7°C 26.3°F-3.2°C 90% 3.0 mph E4.8 kmh E 6.0 mph9.7 kmh 30.47 in1031.8 mb 0.00 in0.0 mm 0.00 in/hr0.0 mm/hr 0.00 in0.0 mm
08:25 AM 28.9°F-1.7°C 26.3°F-3.2°C 90% 6.0 mph E9.7 kmh E 7.0 mph11.3 kmh 30.47 in1031.8 mb 0.00 in0.0 mm 0.00 in/hr0.0 mm/hr 0.00 in0.0 mm
08:20 AM 28.8°F-1.8°C 26.2°F-3.2°C 90% 3.0 mph E4.8 kmh E 10.0 mph16.1 kmh 30.46 in1031.5 mb 0.00 in0.0 mm 0.00 in/hr0.0 mm/hr 0.00 in0.0 mm
08:15 AM 28.8°F-1.8°C 26.2°F-3.2°C 90% 8.0 mph E12.9 kmh E 10.0 mph16.1 kmh 30.46 in1031.5 mb 0.00 in0.0 mm 0.00 in/hr0.0 mm/hr 0.00 in0.0 mm
08:10 AM 28.7°F-1.8°C 26.1°F-3.3°C 90% 3.0 mph E4.8 kmh E 7.0 mph11.3 kmh 30.47 in1031.8 mb 0.00 in0.0 mm 0.00 in/hr0.0 mm/hr 0.00 in0.0 mm
08:05 AM 28.7°F-1.8°C 26.1°F-3.3°C 90% 2.0 mph E3.2 kmh E 6.0 mph9.7 kmh 30.47 in1031.8 mb 0.00 in0.0 mm 0.00 in/hr0.0 mm/hr 0.00 in0.0 mm
08:00 AM 28.7°F-1.8°C 26.1°F-3.3°C 90% 3.0 mph E4.8 kmh E 6.0 mph9.7 kmh 30.46 in1031.5 mb 0.00 in0.0 mm 0.00 in/hr0.0 mm/hr 0.00 in0.0 mm
07:55 AM 28.6°F-1.9°C 26.0°F-3.3°C 90% 2.0 mph E3.2 kmh E 7.0 mph11.3 kmh 30.46 in1031.5 mb 0.00 in0.0 mm 0.00 in/hr0.0 mm/hr 0.00 in0.0 mm
07:50 AM 28.6°F-1.9°C 26.0°F-3.3°C 90% Calm Calm 5.0 mph8.0 kmh 30.47 in1031.8 mb 0.00 in0.0 mm 0.00 in/hr0.0 mm/hr 0.00 in0.0 mm
07:45 AM 28.5°F-1.9°C 25.9°F-3.4°C 90% Calm Calm 5.0 mph8.0 kmh 30.47 in1031.8 mb 0.00 in0.0 mm 0.00 in/hr0.0 mm/hr 0.00 in0.0 mm
07:40 AM 28.5°F-1.9°C 25.9°F-3.4°C 90% Calm Calm 6.0 mph9.7 kmh 30.47 in1031.8 mb 0.00 in0.0 mm 0.00 in/hr0.0 mm/hr 0.00 in0.0 mm
07:35 AM 28.5°F-1.9°C 25.9°F-3.4°C 90% Calm Calm 7.0 mph11.3 kmh 30.47 in1031.8 mb 0.00 in0.0 mm 0.00 in/hr0.0 mm/hr 0.00 in0.0 mm
07:30 AM 28.4°F-2.0°C 25.8°F-3.4°C 90% 1.0 mph E1.6 kmh E 7.0 mph11.3 kmh 30.47 in1031.8 mb 0.00 in0.0 mm 0.00 in/hr0.0 mm/hr 0.00 in0.0 mm
07:25 AM 28.4°F-2.0°C 25.8°F-3.4°C 90% 1.0 mph E1.6 kmh E 6.0 mph9.7 kmh 30.46 in1031.5 mb 0.00 in0.0 mm 0.00 in/hr0.0 mm/hr 0.00 in0.0 mm
07:20 AM 28.4°F-2.0°C 25.8°F-3.4°C 90% 2.0 mph E3.2 kmh E 6.0 mph9.7 kmh 30.46 in1031.5 mb 0.00 in0.0 mm 0.00 in/hr0.0 mm/hr 0.00 in0.0 mm
07:15 AM 28.4°F-2.0°C 25.8°F-3.4°C 90% 3.0 mph E4.8 kmh E 7.0 mph11.3 kmh 30.46 in1031.5 mb 0.00 in0.0 mm 0.00 in/hr0.0 mm/hr 0.00 in0.0 mm
07:10 AM 28.4°F-2.0°C 25.8°F-3.4°C 90% Calm Calm 6.0 mph9.7 kmh 30.46 in1031.5 mb 0.00 in0.0 mm 0.00 in/hr0.0 mm/hr 0.00 in0.0 mm
07:05 AM 28.4°F-2.0°C 25.8°F-3.4°C 90% 2.0 mph E3.2 kmh E 6.0 mph9.7 kmh 30.46 in1031.5 mb 0.00 in0.0 mm 0.00 in/hr0.0 mm/hr 0.00 in0.0 mm
07:00 AM 28.3°F-2.1°C 25.7°F-3.5°C 90% 1.0 mph E1.6 kmh E 7.0 mph11.3 kmh 30.47 in1031.8 mb 0.00 in0.0 mm 0.00 in/hr0.0 mm/hr 0.00 in0.0 mm
06:55 AM 28.3°F-2.1°C 26.0°F-3.3°C 91% 5.0 mph E8.0 kmh E 5.0 mph8.0 kmh 30.47 in1031.8 mb 0.00 in0.0 mm 0.00 in/hr0.0 mm/hr 0.00 in0.0 mm
06:50 AM 28.3°F-2.1°C 25.7°F-3.5°C 90% 2.0 mph E3.2 kmh E 7.0 mph11.3 kmh 30.47 in1031.8 mb 0.00 in0.0 mm 0.00 in/hr0.0 mm/hr 0.00 in0.0 mm
06:45 AM 28.3°F-2.1°C 26.0°F-3.3°C 91% 1.0 mph E1.6 kmh E 5.0 mph8.0 kmh 30.47 in1031.8 mb 0.00 in0.0 mm 0.00 in/hr0.0 mm/hr 0.00 in0.0 mm
06:40 AM 28.3°F-2.1°C 26.0°F-3.3°C 91% 2.0 mph E3.2 kmh E 5.0 mph8.0 kmh 30.47 in1031.8 mb 0.00 in0.0 mm 0.00 in/hr0.0 mm/hr 0.00 in0.0 mm
06:35 AM 28.3°F-2.1°C 26.0°F-3.3°C 91% Calm Calm 7.0 mph11.3 kmh 30.48 in1032.2 mb 0.00 in0.0 mm 0.00 in/hr0.0 mm/hr 0.00 in0.0 mm
06:30 AM 28.3°F-2.1°C 26.0°F-3.3°C 91% 1.0 mph E1.6 kmh E 5.0 mph8.0 kmh 30.47 in1031.8 mb 0.00 in0.0 mm 0.00 in/hr0.0 mm/hr 0.00 in0.0 mm
06:25 AM 28.3°F-2.1°C 25.7°F-3.5°C 90% 1.0 mph E1.6 kmh E 7.0 mph11.3 kmh 30.47 in1031.8 mb 0.00 in0.0 mm 0.00 in/hr0.0 mm/hr 0.00 in0.0 mm
06:20 AM 28.3°F-2.1°C 26.0°F-3.3°C 91% 2.0 mph E3.2 kmh E 7.0 mph11.3 kmh 30.47 in1031.8 mb 0.00 in0.0 mm 0.00 in/hr0.0 mm/hr 0.00 in0.0 mm
06:15 AM 28.3°F-2.1°C 26.0°F-3.3°C 91% 2.0 mph E3.2 kmh E 6.0 mph9.7 kmh 30.47 in1031.8 mb 0.00 in0.0 mm 0.00 in/hr0.0 mm/hr 0.00 in0.0 mm
06:10 AM 28.3°F-2.1°C 26.0°F-3.3°C 91% 2.0 mph E3.2 kmh E 9.0 mph14.5 kmh 30.47 in1031.8 mb 0.00 in0.0 mm 0.00 in/hr0.0 mm/hr 0.00 in0.0 mm
06:05 AM 28.3°F-2.1°C 26.0°F-3.3°C 91% 2.0 mph E3.2 kmh E 6.0 mph9.7 kmh 30.47 in1031.8 mb 0.00 in0.0 mm 0.00 in/hr0.0 mm/hr 0.00 in0.0 mm
06:00 AM 28.3°F-2.1°C 26.0°F-3.3°C 91% 3.0 mph E4.8 kmh E 5.0 mph8.0 kmh 30.47 in1031.8 mb 0.00 in0.0 mm 0.00 in/hr0.0 mm/hr 0.00 in0.0 mm
05:55 AM 28.3°F-2.1°C 26.0°F-3.3°C 91% 1.0 mph E1.6 kmh E 5.0 mph8.0 kmh 30.47 in1031.8 mb 0.00 in0.0 mm 0.00 in/hr0.0 mm/hr 0.00 in0.0 mm
05:50 AM 28.3°F-2.1°C 26.0°F-3.3°C 91% 2.0 mph E3.2 kmh E 5.0 mph8.0 kmh 30.48 in1032.2 mb 0.00 in0.0 mm 0.00 in/hr0.0 mm/hr 0.00 in0.0 mm
05:45 AM 28.3°F-2.1°C 26.0°F-3.3°C 91% 1.0 mph E1.6 kmh E 5.0 mph8.0 kmh 30.47 in1031.8 mb 0.00 in0.0 mm 0.00 in/hr0.0 mm/hr 0.00 in0.0 mm
05:40 AM 28.3°F-2.1°C 26.0°F-3.3°C 91% 1.0 mph E1.6 kmh E 4.0 mph6.4 kmh 30.47 in1031.8 mb 0.00 in0.0 mm 0.00 in/hr0.0 mm/hr 0.00 in0.0 mm
05:35 AM 28.2°F-2.1°C 26.1°F-3.3°C 92% 3.0 mph ENE4.8 kmh ENE 7.0 mph11.3 kmh 30.47 in1031.8 mb 0.00 in0.0 mm 0.00 in/hr0.0 mm/hr 0.00 in0.0 mm
05:30 AM 28.2°F-2.1°C 26.1°F-3.3°C 92% 2.0 mph E3.2 kmh E 3.0 mph4.8 kmh 30.47 in1031.8 mb 0.00 in0.0 mm 0.00 in/hr0.0 mm/hr 0.00 in0.0 mm
05:25 AM 28.2°F-2.1°C 26.1°F-3.3°C 92% 1.0 mph E1.6 kmh E 5.0 mph8.0 kmh 30.47 in1031.8 mb 0.00 in0.0 mm 0.00 in/hr0.0 mm/hr 0.00 in0.0 mm
05:20 AM 28.1°F-2.2°C 26.0°F-3.3°C 92% Calm Calm 6.0 mph9.7 kmh 30.47 in1031.8 mb 0.00 in0.0 mm 0.00 in/hr0.0 mm/hr 0.00 in0.0 mm
05:15 AM 28.1°F-2.2°C 26.0°F-3.3°C 92% 2.0 mph E3.2 kmh E 5.0 mph8.0 kmh 30.47 in1031.8 mb 0.00 in0.0 mm 0.00 in/hr0.0 mm/hr 0.00 in0.0 mm
05:10 AM 28.0°F-2.2°C 25.9°F-3.4°C 92% Calm Calm 3.0 mph4.8 kmh 30.47 in1031.8 mb 0.00 in0.0 mm 0.00 in/hr0.0 mm/hr 0.00 in0.0 mm
05:05 AM 28.0°F-2.2°C 25.9°F-3.4°C 92% 2.0 mph ENE3.2 kmh ENE 3.0 mph4.8 kmh 30.46 in1031.5 mb 0.00 in0.0 mm 0.00 in/hr0.0 mm/hr 0.00 in0.0 mm
05:00 AM 28.0°F-2.2°C 25.9°F-3.4°C 92% Calm Calm 5.0 mph8.0 kmh 30.46 in1031.5 mb 0.00 in0.0 mm 0.00 in/hr0.0 mm/hr 0.00 in0.0 mm
04:55 AM 28.0°F-2.2°C 25.9°F-3.4°C 92% 1.0 mph E1.6 kmh E 3.0 mph4.8 kmh 30.47 in1031.8 mb 0.00 in0.0 mm 0.00 in/hr0.0 mm/hr 0.00 in0.0 mm
04:50 AM 28.0°F-2.2°C 25.9°F-3.4°C 92% Calm Calm 5.0 mph8.0 kmh 30.47 in1031.8 mb 0.00 in0.0 mm 0.00 in/hr0.0 mm/hr 0.00 in0.0 mm
04:45 AM 28.0°F-2.2°C 25.9°F-3.4°C 92% Calm Calm 3.0 mph4.8 kmh 30.47 in1031.8 mb 0.00 in0.0 mm 0.00 in/hr0.0 mm/hr 0.00 in0.0 mm
04:40 AM 28.0°F-2.2°C 25.9°F-3.4°C 92% 1.0 mph E1.6 kmh E 3.0 mph4.8 kmh 30.47 in1031.8 mb 0.00 in0.0 mm 0.00 in/hr0.0 mm/hr 0.00 in0.0 mm
04:35 AM 28.0°F-2.2°C 25.9°F-3.4°C 92% Calm Calm 3.0 mph4.8 kmh 30.47 in1031.8 mb 0.00 in0.0 mm 0.00 in/hr0.0 mm/hr 0.00 in0.0 mm
04:30 AM 27.9°F-2.3°C 25.8°F-3.4°C 92% Calm Calm 3.0 mph4.8 kmh 30.47 in1031.8 mb 0.00 in0.0 mm 0.00 in/hr0.0 mm/hr 0.00 in0.0 mm
04:25 AM 27.9°F-2.3°C 25.8°F-3.4°C 92% 2.0 mph E3.2 kmh E 3.0 mph4.8 kmh 30.47 in1031.8 mb 0.00 in0.0 mm 0.00 in/hr0.0 mm/hr 0.00 in0.0 mm
04:20 AM 27.9°F-2.3°C 25.8°F-3.4°C 92% Calm Calm 6.0 mph9.7 kmh 30.46 in1031.5 mb 0.00 in0.0 mm 0.00 in/hr0.0 mm/hr 0.00 in0.0 mm
04:15 AM 27.9°F-2.3°C 25.8°F-3.4°C 92% 6.0 mph E9.7 kmh E 6.0 mph9.7 kmh 30.47 in1031.8 mb 0.00 in0.0 mm 0.00 in/hr0.0 mm/hr 0.00 in0.0 mm
04:10 AM 27.8°F-2.3°C 25.7°F-3.5°C 92% Calm Calm 3.0 mph4.8 kmh 30.47 in1031.8 mb 0.00 in0.0 mm 0.00 in/hr0.0 mm/hr 0.00 in0.0 mm
04:05 AM 27.8°F-2.3°C 25.7°F-3.5°C 92% 2.0 mph E3.2 kmh E 6.0 mph9.7 kmh 30.47 in1031.8 mb 0.00 in0.0 mm 0.00 in/hr0.0 mm/hr 0.00 in0.0 mm
04:00 AM 27.8°F-2.3°C 25.7°F-3.5°C 92% 3.0 mph E4.8 kmh E 5.0 mph8.0 kmh 30.46 in1031.5 mb 0.00 in0.0 mm 0.00 in/hr0.0 mm/hr 0.00 in0.0 mm
03:55 AM 27.8°F-2.3°C 25.7°F-3.5°C 92% 2.0 mph E3.2 kmh E 5.0 mph8.0 kmh 30.46 in1031.5 mb 0.00 in0.0 mm 0.00 in/hr0.0 mm/hr 0.00 in0.0 mm
03:50 AM 27.8°F-2.3°C 25.7°F-3.5°C 92% 3.0 mph E4.8 kmh E 6.0 mph9.7 kmh 30.46 in1031.5 mb 0.00 in0.0 mm 0.00 in/hr0.0 mm/hr 0.00 in0.0 mm
03:45 AM 27.8°F-2.3°C 25.7°F-3.5°C 92% Calm Calm 6.0 mph9.7 kmh 30.46 in1031.5 mb 0.00 in0.0 mm 0.00 in/hr0.0 mm/hr 0.00 in0.0 mm
03:40 AM 27.8°F-2.3°C 25.7°F-3.5°C 92% 1.0 mph E1.6 kmh E 3.0 mph4.8 kmh 30.47 in1031.8 mb 0.00 in0.0 mm 0.00 in/hr0.0 mm/hr 0.00 in0.0 mm
03:35 AM 27.8°F-2.3°C 25.7°F-3.5°C 92% Calm Calm 3.0 mph4.8 kmh 30.47 in1031.8 mb 0.00 in0.0 mm 0.00 in/hr0.0 mm/hr 0.00 in0.0 mm
03:30 AM 27.8°F-2.3°C 25.5°F-3.6°C 91% 1.0 mph E1.6 kmh E 3.0 mph4.8 kmh 30.47 in1031.8 mb 0.00 in0.0 mm 0.00 in/hr0.0 mm/hr 0.00 in0.0 mm
03:25 AM 27.8°F-2.3°C 25.5°F-3.6°C 91% 1.0 mph E1.6 kmh E 2.0 mph3.2 kmh 30.48 in1032.2 mb 0.00 in0.0 mm 0.00 in/hr0.0 mm/hr 0.00 in0.0 mm
03:20 AM 27.8°F-2.3°C 25.7°F-3.5°C 92% 2.0 mph E3.2 kmh E 3.0 mph4.8 kmh 30.48 in1032.2 mb 0.00 in0.0 mm 0.00 in/hr0.0 mm/hr 0.00 in0.0 mm
03:15 AM 27.8°F-2.3°C 25.5°F-3.6°C 91% Calm Calm 1.0 mph1.6 kmh 30.48 in1032.2 mb 0.00 in0.0 mm 0.00 in/hr0.0 mm/hr 0.00 in0.0 mm
03:10 AM 27.7°F-2.4°C 25.4°F-3.7°C 91% Calm Calm 2.0 mph3.2 kmh 30.48 in1032.2 mb 0.00 in0.0 mm 0.00 in/hr0.0 mm/hr 0.00 in0.0 mm
03:05 AM 27.7°F-2.4°C 25.4°F-3.7°C 91% Calm Calm 3.0 mph4.8 kmh 30.48 in1032.2 mb 0.00 in0.0 mm 0.00 in/hr0.0 mm/hr 0.00 in0.0 mm
03:00 AM 27.7°F-2.4°C 25.4°F-3.7°C 91% 2.0 mph E3.2 kmh E 3.0 mph4.8 kmh 30.47 in1031.8 mb 0.00 in0.0 mm 0.00 in/hr0.0 mm/hr 0.00 in0.0 mm
02:55 AM 27.8°F-2.3°C 25.7°F-3.5°C 92% Calm Calm 5.0 mph8.0 kmh 30.48 in1032.2 mb 0.00 in0.0 mm 0.00 in/hr0.0 mm/hr 0.00 in0.0 mm
02:50 AM 27.7°F-2.4°C 25.6°F-3.6°C 92% 1.0 mph E1.6 kmh E 3.0 mph4.8 kmh 30.48 in1032.2 mb 0.00 in0.0 mm 0.00 in/hr0.0 mm/hr 0.00 in0.0 mm
02:45 AM 27.7°F-2.4°C 25.4°F-3.7°C 91% Calm Calm 3.0 mph4.8 kmh 30.48 in1032.2 mb 0.00 in0.0 mm 0.00 in/hr0.0 mm/hr 0.00 in0.0 mm
02:40 AM 27.7°F-2.4°C 25.4°F-3.7°C 91% Calm Calm 2.0 mph3.2 kmh 30.48 in1032.2 mb 0.00 in0.0 mm 0.00 in/hr0.0 mm/hr 0.00 in0.0 mm
02:35 AM 27.7°F-2.4°C 25.4°F-3.7°C 91% 1.0 mph E1.6 kmh E 3.0 mph4.8 kmh 30.48 in1032.2 mb 0.00 in0.0 mm 0.00 in/hr0.0 mm/hr 0.00 in0.0 mm
02:30 AM 27.6°F-2.4°C 25.3°F-3.7°C 91% 3.0 mph E4.8 kmh E 5.0 mph8.0 kmh 30.48 in1032.2 mb 0.00 in0.0 mm 0.00 in/hr0.0 mm/hr 0.00 in0.0 mm
02:25 AM 27.6°F-2.4°C 25.3°F-3.7°C 91% 3.0 mph E4.8 kmh E 6.0 mph9.7 kmh 30.48 in1032.2 mb 0.00 in0.0 mm 0.00 in/hr0.0 mm/hr 0.00 in0.0 mm
02:20 AM 27.6°F-2.4°C 25.3°F-3.7°C 91% 2.0 mph E3.2 kmh E 6.0 mph9.7 kmh 30.48 in1032.2 mb 0.00 in0.0 mm 0.00 in/hr0.0 mm/hr 0.00 in0.0 mm
02:15 AM 27.6°F-2.4°C 25.3°F-3.7°C 91% Calm Calm 5.0 mph8.0 kmh 30.48 in1032.2 mb 0.00 in0.0 mm 0.00 in/hr0.0 mm/hr 0.00 in0.0 mm
02:10 AM 27.6°F-2.4°C 25.3°F-3.7°C 91% 3.0 mph E4.8 kmh E 5.0 mph8.0 kmh 30.48 in1032.2 mb 0.00 in0.0 mm 0.00 in/hr0.0 mm/hr 0.00 in0.0 mm
02:05 AM 27.6°F-2.4°C 25.3°F-3.7°C 91% 2.0 mph E3.2 kmh E 6.0 mph9.7 kmh 30.48 in1032.2 mb 0.00 in0.0 mm 0.00 in/hr0.0 mm/hr 0.00 in0.0 mm
02:00 AM 27.5°F-2.5°C 25.2°F-3.8°C 91% 1.0 mph E1.6 kmh E 6.0 mph9.7 kmh 30.48 in1032.2 mb 0.00 in0.0 mm 0.00 in/hr0.0 mm/hr 0.00 in0.0 mm
01:55 AM 27.5°F-2.5°C 25.2°F-3.8°C 91% 5.0 mph E8.0 kmh E 5.0 mph8.0 kmh 30.48 in1032.2 mb 0.00 in0.0 mm 0.00 in/hr0.0 mm/hr 0.00 in0.0 mm
01:50 AM 27.4°F-2.6°C 25.1°F-3.8°C 91% 1.0 mph E1.6 kmh E 7.0 mph11.3 kmh 30.48 in1032.2 mb 0.00 in0.0 mm 0.00 in/hr0.0 mm/hr 0.00 in0.0 mm
01:45 AM 27.4°F-2.6°C 25.1°F-3.8°C 91% 4.0 mph E6.4 kmh E 5.0 mph8.0 kmh 30.48 in1032.2 mb 0.00 in0.0 mm 0.00 in/hr0.0 mm/hr 0.00 in0.0 mm
01:40 AM 27.4°F-2.6°C 25.1°F-3.8°C 91% 1.0 mph E1.6 kmh E 5.0 mph8.0 kmh 30.48 in1032.2 mb 0.00 in0.0 mm 0.00 in/hr0.0 mm/hr 0.00 in0.0 mm
01:35 AM 27.4°F-2.6°C 25.1°F-3.8°C 91% Calm Calm 6.0 mph9.7 kmh 30.48 in1032.2 mb 0.00 in0.0 mm 0.00 in/hr0.0 mm/hr 0.00 in0.0 mm
01:30 AM 27.4°F-2.6°C 25.1°F-3.8°C 91% 3.0 mph E4.8 kmh E 8.0 mph12.9 kmh 30.48 in1032.2 mb 0.00 in0.0 mm 0.00 in/hr0.0 mm/hr 0.00 in0.0 mm
01:25 AM 27.4°F-2.6°C 25.1°F-3.8°C 91% 7.0 mph E11.3 kmh E 8.0 mph12.9 kmh 30.48 in1032.2 mb 0.00 in0.0 mm 0.00 in/hr0.0 mm/hr 0.00 in0.0 mm
01:20 AM 27.5°F-2.5°C 25.2°F-3.8°C 91% 2.0 mph E3.2 kmh E 6.0 mph9.7 kmh 30.48 in1032.2 mb 0.00 in0.0 mm 0.00 in/hr0.0 mm/hr 0.00 in0.0 mm
01:15 AM 27.5°F-2.5°C 25.2°F-3.8°C 91% 3.0 mph E4.8 kmh E 8.0 mph12.9 kmh 30.49 in1032.5 mb 0.00 in0.0 mm 0.00 in/hr0.0 mm/hr 0.00 in0.0 mm
01:10 AM 27.6°F-2.4°C 25.3°F-3.7°C 91% 2.0 mph E3.2 kmh E 5.0 mph8.0 kmh 30.49 in1032.5 mb 0.00 in0.0 mm 0.00 in/hr0.0 mm/hr 0.00 in0.0 mm
01:05 AM 27.5°F-2.5°C 25.2°F-3.8°C 91% 3.0 mph E4.8 kmh E 5.0 mph8.0 kmh 30.50 in1032.8 mb 0.00 in0.0 mm 0.00 in/hr0.0 mm/hr 0.00 in0.0 mm
01:00 AM 27.5°F-2.5°C 25.2°F-3.8°C 91% 3.0 mph E4.8 kmh E 6.0 mph9.7 kmh 30.50 in1032.8 mb 0.00 in0.0 mm 0.00 in/hr0.0 mm/hr 0.00 in0.0 mm
12:55 AM 27.4°F-2.6°C 25.1°F-3.8°C 91% 2.0 mph E3.2 kmh E 7.0 mph11.3 kmh 30.50 in1032.8 mb 0.00 in0.0 mm 0.00 in/hr0.0 mm/hr 0.00 in0.0 mm
12:50 AM 27.4°F-2.6°C 25.1°F-3.8°C 91% 6.0 mph E9.7 kmh E 5.0 mph8.0 kmh 30.50 in1032.8 mb 0.00 in0.0 mm 0.00 in/hr0.0 mm/hr 0.00 in0.0 mm
12:45 AM 27.4°F-2.6°C 25.1°F-3.8°C 91% 2.0 mph ENE3.2 kmh ENE 4.0 mph6.4 kmh 30.50 in1032.8 mb 0.00 in0.0 mm 0.00 in/hr0.0 mm/hr 0.00 in0.0 mm
12:40 AM 27.5°F-2.5°C 25.2°F-3.8°C 91% Calm Calm 4.0 mph6.4 kmh 30.50 in1032.8 mb 0.00 in0.0 mm 0.00 in/hr0.0 mm/hr 0.00 in0.0 mm
12:35 AM 27.4°F-2.6°C 25.1°F-3.8°C 91% 1.0 mph ENE1.6 kmh ENE 4.0 mph6.4 kmh 30.51 in1033.2 mb 0.00 in0.0 mm 0.00 in/hr0.0 mm/hr 0.00 in0.0 mm
12:30 AM 27.4°F-2.6°C 24.8°F-4.0°C 90% 2.0 mph ENE3.2 kmh ENE 3.0 mph4.8 kmh 30.51 in1033.2 mb 0.00 in0.0 mm 0.00 in/hr0.0 mm/hr 0.00 in0.0 mm
12:25 AM 27.3°F-2.6°C 24.7°F-4.1°C 90% Calm Calm 2.0 mph3.2 kmh 30.50 in1032.8 mb 0.00 in0.0 mm 0.00 in/hr0.0 mm/hr 0.00 in0.0 mm
12:20 AM 27.3°F-2.6°C 24.7°F-4.1°C 90% 1.0 mph ENE1.6 kmh ENE 3.0 mph4.8 kmh 30.50 in1032.8 mb 0.00 in0.0 mm 0.00 in/hr0.0 mm/hr 0.00 in0.0 mm
12:15 AM 27.3°F-2.6°C 24.7°F-4.1°C 90% 1.0 mph ENE1.6 kmh ENE 4.0 mph6.4 kmh 30.51 in1033.2 mb 0.00 in0.0 mm 0.00 in/hr0.0 mm/hr 0.00 in0.0 mm
12:10 AM 27.3°F-2.6°C 24.7°F-4.1°C 90% Calm Calm 3.0 mph4.8 kmh 30.51 in1033.2 mb 0.00 in0.0 mm 0.00 in/hr0.0 mm/hr 0.00 in0.0 mm
12:05 AM 27.3°F-2.6°C 24.7°F-4.1°C 90% 2.0 mph E3.2 kmh E 3.0 mph4.8 kmh 30.51 in1033.2 mb 0.00 in0.0 mm 0.00 in/hr0.0 mm/hr 0.00 in0.0 mm
12:00 AM 27.3°F-2.6°C 24.7°F-4.1°C 90% 2.0 mph E3.2 kmh E 5.0 mph8.0 kmh 30.51 in1033.2 mb 0.00 in0.0 mm 0.00 in/hr0.0 mm/hr 0.00 in0.0 mm